createdAt,value
2019-05-02T07:43:06.017Z,33.37
2019-05-02T07:44:05.952Z,33.98
2019-05-02T07:45:09.435Z,33.58
2019-05-02T07:46:05.913Z,33.98
2019-05-02T07:47:05.921Z,33.99
2019-05-02T07:48:05.968Z,33.98
2019-05-02T07:49:05.885Z,33.98
2019-05-02T07:50:10.373Z,33.87
2019-05-02T07:51:05.927Z,33.09
2019-05-02T07:52:05.858Z,33.07
2019-05-02T07:53:30.712Z,33.67
2019-05-02T07:54:30.481Z,33.58
2019-05-02T07:55:30.899Z,33.37
2019-05-02T07:56:30.419Z,32.77
2019-05-02T07:57:37.868Z,32.07
2019-05-02T07:58:38.423Z,33.07
2019-05-02T07:59:38.800Z,33.07
2019-05-02T08:00:38.493Z,32.67
2019-05-02T08:01:37.803Z,32.27
2019-05-02T08:02:37.790Z,32.57
2019-05-02T08:03:37.801Z,32.77
2019-05-02T08:04:37.753Z,32.97
2019-05-02T08:05:37.752Z,32.77
2019-05-02T08:06:40.129Z,32.57
2019-05-02T08:07:38.954Z,33.37
2019-05-02T08:08:38.451Z,32.67
2019-05-02T08:09:39.141Z,33.28
2019-05-02T08:10:38.681Z,32.56
2019-05-02T08:11:38.555Z,32.57
2019-05-02T08:12:37.757Z,32.06
2019-05-02T08:13:37.685Z,32.06
2019-05-02T08:14:37.634Z,33.26
2019-05-02T08:15:37.733Z,32.46
2019-05-02T08:16:37.775Z,32.26
2019-05-02T08:17:37.613Z,32.35
2019-05-02T08:18:37.607Z,32.06
2019-05-02T08:19:41.620Z,32.56
2019-05-02T08:20:39.000Z,32.26
2019-05-02T08:21:37.563Z,32.15
2019-05-02T08:22:37.552Z,32.46
2019-05-02T08:23:37.542Z,32.46
2019-05-02T08:24:38.244Z,32.65
2019-05-02T08:25:41.458Z,32.76
2019-05-02T08:26:38.549Z,32.76
2019-05-02T08:27:44.472Z,32.65
2019-05-02T08:28:37.508Z,32.65
2019-05-02T08:29:37.467Z,32.46
2019-05-02T08:30:40.435Z,31.85
2019-05-02T08:31:37.445Z,32.26
2019-05-02T08:32:37.462Z,31.85
2019-05-02T08:33:37.421Z,31.94
2019-05-02T08:34:37.580Z,31.96
2019-05-02T08:35:39.264Z,32.26
2019-05-02T08:36:37.395Z,32.15
2019-05-02T08:37:41.089Z,32.14
2019-05-02T08:38:38.403Z,31.96
2019-05-02T08:39:37.362Z,32.26
2019-05-02T08:40:37.346Z,32.06
2019-05-02T08:41:37.391Z,32.04
2019-05-02T08:42:37.334Z,32.15
2019-05-02T08:43:40.312Z,31.76
2019-05-02T08:44:50.337Z,32.26
2019-05-02T08:45:39.554Z,31.76
2019-05-02T08:46:37.280Z,32.26
2019-05-02T08:47:37.263Z,32.26
2019-05-02T08:48:41.741Z,31.76
2019-05-02T08:49:38.254Z,31.96
2019-05-02T08:50:37.239Z,32.56
2019-05-02T08:51:37.234Z,32.06
2019-05-02T08:52:42.231Z,32.06
2019-05-02T08:53:38.255Z,32.26
2019-05-02T08:54:38.125Z,31.85
2019-05-02T08:55:41.357Z,31.96
2019-05-02T08:56:38.164Z,31.65
2019-05-02T08:57:37.152Z,32.06
2019-05-02T08:58:49.762Z,32.06
2019-05-02T08:59:37.129Z,32.26
2019-05-02T09:00:39.300Z,32.15
2019-05-02T09:01:37.106Z,31.96
2019-05-02T09:02:41.468Z,32.86
2019-05-02T09:46:24.540Z,34.58
2019-05-02T09:47:27.337Z,33.46
2019-05-02T09:48:26.875Z,33.78
2019-05-02T09:49:24.341Z,33.56
2019-05-02T09:50:29.661Z,33.46
2019-05-02T09:51:25.224Z,33.87
2019-05-02T09:52:24.163Z,32.96
2019-05-02T09:53:25.509Z,33.36
2019-05-02T09:54:24.001Z,32.35
2019-05-02T09:55:23.922Z,32.56
2019-05-02T09:56:23.862Z,32.46
2019-05-02T09:57:39.287Z,32.44
2019-05-02T09:58:39.271Z,32.64
2019-05-02T09:59:43.470Z,32.74
2019-05-02T10:00:41.814Z,32.64
2019-05-02T10:01:39.270Z,32.74
2019-05-02T10:02:39.246Z,32.04
2019-05-02T10:03:39.940Z,32.14
